sensor_id;sensor_type;location;lat;lon;timestamp;P1;durP1;ratioP1;P2;durP2;ratioP2
43098;SDS011;28715;51.988;6.020;2022-09-12T00:01:19;68.00;;;35.97;;
43098;SDS011;28715;51.988;6.020;2022-09-12T00:03:46;69.47;;;35.60;;
43098;SDS011;28715;51.988;6.020;2022-09-12T00:06:16;79.18;;;37.05;;
43098;SDS011;28715;51.988;6.020;2022-09-12T00:08:44;83.53;;;37.47;;
43098;SDS011;28715;51.988;6.020;2022-09-12T00:11:10;75.83;;;36.40;;
43098;SDS011;28715;51.988;6.020;2022-09-12T00:13:37;85.90;;;41.08;;
43098;SDS011;28715;51.988;6.020;2022-09-12T00:16:04;83.25;;;37.85;;
43098;SDS011;28715;51.988;6.020;2022-09-12T00:18:30;70.25;;;34.42;;
43098;SDS011;28715;51.988;6.020;2022-09-12T00:20:59;67.10;;;34.35;;
43098;SDS011;28715;51.988;6.020;2022-09-12T00:23:26;69.15;;;35.20;;
43098;SDS011;28715;51.988;6.020;2022-09-12T00:25:52;70.83;;;33.80;;
43098;SDS011;28715;51.988;6.020;2022-09-12T00:28:17;52.70;;;18.30;;
43098;SDS011;28715;51.988;6.020;2022-09-12T00:30:44;1069.38;;;562.42;;
43098;SDS011;28715;51.988;6.020;2022-09-12T00:33:11;385.58;;;71.97;;
43098;SDS011;28715;51.988;6.020;2022-09-12T00:35:45;65.38;;;31.08;;
43098;SDS011;28715;51.988;6.020;2022-09-12T00:38:13;97.32;;;35.05;;
43098;SDS011;28715;51.988;6.020;2022-09-12T00:40:40;78.45;;;32.47;;
43098;SDS011;28715;51.988;6.020;2022-09-12T00:43:13;77.13;;;31.85;;
43098;SDS011;28715;51.988;6.020;2022-09-12T00:45:39;80.00;;;30.40;;
43098;SDS011;28715;51.988;6.020;2022-09-12T00:48:07;73.63;;;31.98;;
43098;SDS011;28715;51.988;6.020;2022-09-12T00:50:43;77.72;;;33.50;;
43098;SDS011;28715;51.988;6.020;2022-09-12T00:53:09;76.73;;;33.37;;
43098;SDS011;28715;51.988;6.020;2022-09-12T00:55:35;89.73;;;35.33;;
43098;SDS011;28715;51.988;6.020;2022-09-12T00:58:07;74.55;;;33.47;;
43098;SDS011;28715;51.988;6.020;2022-09-12T01:00:36;105.43;;;39.33;;
43098;SDS011;28715;51.988;6.020;2022-09-12T01:03:10;87.07;;;37.73;;
43098;SDS011;28715;51.988;6.020;2022-09-12T01:05:39;104.90;;;39.58;;
43098;SDS011;28715;51.988;6.020;2022-09-12T01:08:08;100.82;;;38.97;;
43098;SDS011;28715;51.988;6.020;2022-09-12T01:10:35;83.25;;;34.78;;
43098;SDS011;28715;51.988;6.020;2022-09-12T01:13:04;89.88;;;36.40;;
43098;SDS011;28715;51.988;6.020;2022-09-12T01:15:31;79.13;;;34.25;;
43098;SDS011;28715;51.988;6.020;2022-09-12T01:18:03;83.80;;;35.47;;
43098;SDS011;28715;51.988;6.020;2022-09-12T01:31:43;25.63;;;11.35;;
43098;SDS011;28715;51.988;6.020;2022-09-12T01:34:24;25.52;;;10.75;;
43098;SDS011;28715;51.988;6.020;2022-09-12T01:47:33;24.40;;;9.82;;
43098;SDS011;28715;51.988;6.020;2022-09-12T01:50:05;30.30;;;12.40;;
43098;SDS011;28715;51.988;6.020;2022-09-12T01:52:49;30.30;;;10.98;;
43098;SDS011;28715;51.988;6.020;2022-09-12T01:55:35;24.65;;;10.35;;
43098;SDS011;28715;51.988;6.020;2022-09-12T01:58:24;25.45;;;11.43;;
43098;SDS011;28715;51.988;6.020;2022-09-12T02:01:04;23.63;;;10.75;;
43098;SDS011;28715;51.988;6.020;2022-09-12T02:03:58;25.50;;;10.57;;
43098;SDS011;28715;51.988;6.020;2022-09-12T02:06:36;161.95;;;123.63;;
43098;SDS011;28715;51.988;6.020;2022-09-12T02:09:12;112.50;;;41.95;;
43098;SDS011;28715;51.988;6.020;2022-09-12T02:11:48;119.03;;;42.50;;
43098;SDS011;28715;51.988;6.020;2022-09-12T02:14:20;134.55;;;42.65;;
43098;SDS011;28715;51.988;6.020;2022-09-12T02:17:05;161.07;;;49.10;;
43098;SDS011;28715;51.988;6.020;2022-09-12T02:19:36;97.15;;;38.40;;
43098;SDS011;28715;51.988;6.020;2022-09-12T02:22:07;117.63;;;43.28;;
43098;SDS011;28715;51.988;6.020;2022-09-12T02:24:36;70.90;;;26.48;;
43098;SDS011;28715;51.988;6.020;2022-09-12T02:27:15;83.97;;;35.75;;
43098;SDS011;28715;51.988;6.020;2022-09-12T02:29:47;96.10;;;39.13;;
43098;SDS011;28715;51.988;6.020;2022-09-12T02:35:10;107.05;;;37.88;;
43098;SDS011;28715;51.988;6.020;2022-09-12T02:37:59;86.53;;;38.38;;
43098;SDS011;28715;51.988;6.020;2022-09-12T02:40:29;87.65;;;34.58;;
43098;SDS011;28715;51.988;6.020;2022-09-12T02:42:56;77.15;;;34.53;;
43098;SDS011;28715;51.988;6.020;2022-09-12T02:45:22;82.80;;;34.37;;
43098;SDS011;28715;51.988;6.020;2022-09-12T02:47:49;100.20;;;37.07;;
43098;SDS011;28715;51.988;6.020;2022-09-12T02:50:18;94.25;;;37.28;;
43098;SDS011;28715;51.988;6.020;2022-09-12T02:52:44;114.67;;;41.97;;
43098;SDS011;28715;51.988;6.020;2022-09-12T02:55:10;103.97;;;39.83;;
43098;SDS011;28715;51.988;6.020;2022-09-12T02:57:37;114.68;;;40.70;;
43098;SDS011;28715;51.988;6.020;2022-09-12T03:00:03;137.93;;;43.70;;
43098;SDS011;28715;51.988;6.020;2022-09-12T03:05:18;101.93;;;38.03;;
43098;SDS011;28715;51.988;6.020;2022-09-12T03:08:11;112.85;;;39.15;;
43098;SDS011;28715;51.988;6.020;2022-09-12T03:16:23;113.05;;;41.03;;
43098;SDS011;28715;51.988;6.020;2022-09-12T03:19:15;94.45;;;37.92;;
43098;SDS011;28715;51.988;6.020;2022-09-12T03:24:48;115.40;;;38.60;;
43098;SDS011;28715;51.988;6.020;2022-09-12T03:27:26;98.45;;;38.92;;
43098;SDS011;28715;51.988;6.020;2022-09-12T03:29:58;92.95;;;36.42;;
43098;SDS011;28715;51.988;6.020;2022-09-12T03:35:05;118.15;;;42.15;;
43098;SDS011;28715;51.988;6.020;2022-09-12T03:37:31;115.10;;;39.47;;
43098;SDS011;28715;51.988;6.020;2022-09-12T03:39:57;102.73;;;37.33;;
43098;SDS011;28715;51.988;6.020;2022-09-12T03:42:22;89.53;;;37.80;;
43098;SDS011;28715;51.988;6.020;2022-09-12T03:44:48;95.07;;;38.93;;
43098;SDS011;28715;51.988;6.020;2022-09-12T03:47:13;106.20;;;41.37;;
43098;SDS011;28715;51.988;6.020;2022-09-12T03:49:39;95.73;;;38.37;;
43098;SDS011;28715;51.988;6.020;2022-09-12T03:52:04;105.17;;;39.87;;
43098;SDS011;28715;51.988;6.020;2022-09-12T03:54:30;109.33;;;42.63;;
43098;SDS011;28715;51.988;6.020;2022-09-12T03:56:55;109.13;;;41.90;;
43098;SDS011;28715;51.988;6.020;2022-09-12T03:59:21;107.20;;;31.60;;
43098;SDS011;28715;51.988;6.020;2022-09-12T04:01:46;73.47;;;32.17;;
43098;SDS011;28715;51.988;6.020;2022-09-12T04:04:12;82.50;;;34.47;;
43098;SDS011;28715;51.988;6.020;2022-09-12T04:06:37;91.33;;;35.27;;
43098;SDS011;28715;51.988;6.020;2022-09-12T04:09:03;87.13;;;34.83;;
43098;SDS011;28715;51.988;6.020;2022-09-12T04:11:29;81.82;;;33.25;;
43098;SDS011;28715;51.988;6.020;2022-09-12T04:13:56;87.03;;;34.40;;
43098;SDS011;28715;51.988;6.020;2022-09-12T04:16:21;89.90;;;34.70;;
43098;SDS011;28715;51.988;6.020;2022-09-12T04:18:47;89.80;;;33.83;;
43098;SDS011;28715;51.988;6.020;2022-09-12T04:21:14;85.90;;;33.90;;
43098;SDS011;28715;51.988;6.020;2022-09-12T04:23:42;89.03;;;33.40;;
43098;SDS011;28715;51.988;6.020;2022-09-12T04:26:08;100.27;;;34.37;;
43098;SDS011;28715;51.988;6.020;2022-09-12T04:28:34;94.57;;;34.83;;
43098;SDS011;28715;51.988;6.020;2022-09-12T04:31:10;103.45;;;36.80;;
43098;SDS011;28715;51.988;6.020;2022-09-12T04:33:42;89.53;;;35.90;;
43098;SDS011;28715;51.988;6.020;2022-09-12T04:36:09;116.00;;;37.63;;
43098;SDS011;28715;51.988;6.020;2022-09-12T04:38:40;104.03;;;36.35;;
43098;SDS011;28715;51.988;6.020;2022-09-12T04:41:10;115.60;;;37.05;;
43098;SDS011;28715;51.988;6.020;2022-09-12T04:43:40;116.68;;;36.35;;
43098;SDS011;28715;51.988;6.020;2022-09-12T04:46:07;106.30;;;36.20;;
43098;SDS011;28715;51.988;6.020;2022-09-12T04:48:34;98.03;;;37.75;;
43098;SDS011;28715;51.988;6.020;2022-09-12T04:53:37;91.88;;;35.15;;
43098;SDS011;28715;51.988;6.020;2022-09-12T04:56:04;79.75;;;34.22;;
43098;SDS011;28715;51.988;6.020;2022-09-12T04:58:31;81.13;;;32.70;;
43098;SDS011;28715;51.988;6.020;2022-09-12T05:01:08;93.47;;;37.40;;
43098;SDS011;28715;51.988;6.020;2022-09-12T05:03:35;84.88;;;35.92;;
43098;SDS011;28715;51.988;6.020;2022-09-12T05:06:09;93.40;;;38.80;;
43098;SDS011;28715;51.988;6.020;2022-09-12T05:08:38;123.43;;;44.60;;
43098;SDS011;28715;51.988;6.020;2022-09-12T05:11:05;129.47;;;44.33;;
43098;SDS011;28715;51.988;6.020;2022-09-12T05:13:32;117.43;;;45.67;;
43098;SDS011;28715;51.988;6.020;2022-09-12T05:15:59;120.90;;;46.25;;
43098;SDS011;28715;51.988;6.020;2022-09-12T05:18:26;164.27;;;48.42;;
43098;SDS011;28715;51.988;6.020;2022-09-12T05:20:53;120.65;;;46.95;;
43098;SDS011;28715;51.988;6.020;2022-09-12T05:23:19;145.38;;;48.97;;
43098;SDS011;28715;51.988;6.020;2022-09-12T05:25:49;168.82;;;53.03;;
43098;SDS011;28715;51.988;6.020;2022-09-12T05:28:16;134.90;;;47.67;;
43098;SDS011;28715;51.988;6.020;2022-09-12T05:30:42;147.52;;;50.10;;
43098;SDS011;28715;51.988;6.020;2022-09-12T05:33:07;65.47;;;19.93;;
43098;SDS011;28715;51.988;6.020;2022-09-12T05:35:33;74.37;;;24.40;;
43098;SDS011;28715;51.988;6.020;2022-09-12T05:37:59;75.07;;;24.93;;
43098;SDS011;28715;51.988;6.020;2022-09-12T05:40:24;66.10;;;24.33;;
43098;SDS011;28715;51.988;6.020;2022-09-12T05:42:50;65.03;;;23.87;;
43098;SDS011;28715;51.988;6.020;2022-09-12T05:45:15;101.63;;;30.47;;
43098;SDS011;28715;51.988;6.020;2022-09-12T05:47:41;128.77;;;39.67;;
43098;SDS011;28715;51.988;6.020;2022-09-12T05:50:07;86.30;;;34.80;;
43098;SDS011;28715;51.988;6.020;2022-09-12T05:52:35;59.83;;;20.25;;
43098;SDS011;28715;51.988;6.020;2022-09-12T05:55:01;55.63;;;19.38;;
43098;SDS011;28715;51.988;6.020;2022-09-12T05:57:27;66.00;;;24.17;;
43098;SDS011;28715;51.988;6.020;2022-09-12T05:59:53;74.53;;;26.30;;
43098;SDS011;28715;51.988;6.020;2022-09-12T06:02:19;63.73;;;23.60;;
43098;SDS011;28715;51.988;6.020;2022-09-12T06:04:45;87.55;;;28.98;;
43098;SDS011;28715;51.988;6.020;2022-09-12T06:07:10;78.23;;;29.00;;
43098;SDS011;28715;51.988;6.020;2022-09-12T06:09:37;75.47;;;26.92;;
43098;SDS011;28715;51.988;6.020;2022-09-12T06:12:02;86.03;;;28.67;;
43098;SDS011;28715;51.988;6.020;2022-09-12T06:14:28;79.27;;;28.10;;
43098;SDS011;28715;51.988;6.020;2022-09-12T06:16:54;87.23;;;28.60;;
43098;SDS011;28715;51.988;6.020;2022-09-12T06:19:20;75.80;;;25.83;;
43098;SDS011;28715;51.988;6.020;2022-09-12T06:21:49;70.93;;;24.70;;
43098;SDS011;28715;51.988;6.020;2022-09-12T06:24:15;69.68;;;26.88;;
43098;SDS011;28715;51.988;6.020;2022-09-12T06:26:42;62.78;;;26.08;;
43098;SDS011;28715;51.988;6.020;2022-09-12T06:29:08;80.53;;;31.13;;
43098;SDS011;28715;51.988;6.020;2022-09-12T06:31:35;75.47;;;32.30;;
43098;SDS011;28715;51.988;6.020;2022-09-12T06:34:04;73.00;;;30.38;;
43098;SDS011;28715;51.988;6.020;2022-09-12T06:36:32;65.63;;;30.25;;
43098;SDS011;28715;51.988;6.020;2022-09-12T06:39:02;61.53;;;27.55;;
43098;SDS011;28715;51.988;6.020;2022-09-12T06:41:30;69.80;;;29.30;;
43098;SDS011;28715;51.988;6.020;2022-09-12T06:43:56;68.17;;;29.27;;
43098;SDS011;28715;51.988;6.020;2022-09-12T06:46:22;62.00;;;23.67;;
43098;SDS011;28715;51.988;6.020;2022-09-12T06:48:49;63.80;;;26.33;;
43098;SDS011;28715;51.988;6.020;2022-09-12T06:51:16;61.90;;;25.20;;
43098;SDS011;28715;51.988;6.020;2022-09-12T06:53:43;57.53;;;23.60;;
43098;SDS011;28715;51.988;6.020;2022-09-12T06:56:13;58.30;;;22.67;;
43098;SDS011;28715;51.988;6.020;2022-09-12T06:58:39;5.32;;;5.13;;
43098;SDS011;28715;51.988;6.020;2022-09-12T07:03:36;221.25;;;97.85;;
43098;SDS011;28715;51.988;6.020;2022-09-12T07:06:06;135.20;;;58.33;;
43098;SDS011;28715;51.988;6.020;2022-09-12T07:08:34;144.88;;;55.35;;
43098;SDS011;28715;51.988;6.020;2022-09-12T07:11:17;1554.97;;;296.35;;
43098;SDS011;28715;51.988;6.020;2022-09-12T07:13:46;121.05;;;55.17;;
43098;SDS011;28715;51.988;6.020;2022-09-12T07:16:15;102.20;;;51.50;;
43098;SDS011;28715;51.988;6.020;2022-09-12T07:18:42;85.57;;;49.25;;
43098;SDS011;28715;51.988;6.020;2022-09-12T07:21:11;78.70;;;44.17;;
43098;SDS011;28715;51.988;6.020;2022-09-12T07:23:38;68.10;;;39.97;;
43098;SDS011;28715;51.988;6.020;2022-09-12T07:26:05;63.70;;;38.47;;
43098;SDS011;28715;51.988;6.020;2022-09-12T07:28:32;65.27;;;39.83;;
43098;SDS011;28715;51.988;6.020;2022-09-12T07:31:08;69.77;;;44.30;;
43098;SDS011;28715;51.988;6.020;2022-09-12T07:33:36;65.23;;;40.10;;
43098;SDS011;28715;51.988;6.020;2022-09-12T07:36:03;68.10;;;40.17;;
43098;SDS011;28715;51.988;6.020;2022-09-12T07:38:30;66.27;;;40.93;;
43098;SDS011;28715;51.988;6.020;2022-09-12T07:40:56;66.77;;;40.53;;
43098;SDS011;28715;51.988;6.020;2022-09-12T07:43:22;63.87;;;39.33;;
43098;SDS011;28715;51.988;6.020;2022-09-12T07:45:53;58.63;;;37.10;;
43098;SDS011;28715;51.988;6.020;2022-09-12T07:48:19;50.07;;;32.10;;
43098;SDS011;28715;51.988;6.020;2022-09-12T07:50:44;50.33;;;33.43;;
43098;SDS011;28715;51.988;6.020;2022-09-12T07:53:10;46.80;;;31.13;;
43098;SDS011;28715;51.988;6.020;2022-09-12T07:55:36;99.50;;;38.03;;
43098;SDS011;28715;51.988;6.020;2022-09-12T07:58:02;139.67;;;69.67;;
43098;SDS011;28715;51.988;6.020;2022-09-12T08:00:28;45.37;;;32.30;;
43098;SDS011;28715;51.988;6.020;2022-09-12T08:02:59;108.37;;;46.50;;
43098;SDS011;28715;51.988;6.020;2022-09-12T08:05:26;50.37;;;33.13;;
43098;SDS011;28715;51.988;6.020;2022-09-12T08:07:52;45.90;;;33.57;;
43098;SDS011;28715;51.988;6.020;2022-09-12T08:10:18;52.20;;;36.27;;
43098;SDS011;28715;51.988;6.020;2022-09-12T08:12:43;49.77;;;34.27;;
43098;SDS011;28715;51.988;6.020;2022-09-12T08:15:09;54.00;;;37.27;;
43098;SDS011;28715;51.988;6.020;2022-09-12T08:17:34;48.53;;;35.03;;
43098;SDS011;28715;51.988;6.020;2022-09-12T08:20:00;49.40;;;34.37;;
43098;SDS011;28715;51.988;6.020;2022-09-12T08:22:26;52.70;;;36.13;;
43098;SDS011;28715;51.988;6.020;2022-09-12T08:24:54;45.40;;;31.73;;
43098;SDS011;28715;51.988;6.020;2022-09-12T08:27:19;48.57;;;33.80;;
43098;SDS011;28715;51.988;6.020;2022-09-12T08:29:45;48.43;;;36.63;;
43098;SDS011;28715;51.988;6.020;2022-09-12T08:32:10;46.17;;;31.60;;
43098;SDS011;28715;51.988;6.020;2022-09-12T08:34:36;45.60;;;32.70;;
43098;SDS011;28715;51.988;6.020;2022-09-12T08:37:01;47.03;;;31.43;;
43098;SDS011;28715;51.988;6.020;2022-09-12T08:39:28;42.83;;;29.93;;
43098;SDS011;28715;51.988;6.020;2022-09-12T08:42:03;41.23;;;30.10;;
43098;SDS011;28715;51.988;6.020;2022-09-12T08:50:31;41.53;;;30.93;;
43098;SDS011;28715;51.988;6.020;2022-09-12T08:55:58;38.57;;;27.00;;
43098;SDS011;28715;51.988;6.020;2022-09-12T08:58:19;35.10;;;26.57;;
43098;SDS011;28715;51.988;6.020;2022-09-12T09:06:47;36.40;;;26.10;;
43098;SDS011;28715;51.988;6.020;2022-09-12T09:15:16;30.03;;;23.40;;
43098;SDS011;28715;51.988;6.020;2022-09-12T09:18:14;33.90;;;24.63;;
43098;SDS011;28715;51.988;6.020;2022-09-12T09:20:49;31.13;;;23.07;;
43098;SDS011;28715;51.988;6.020;2022-09-12T09:23:38;27.40;;;20.70;;
43098;SDS011;28715;51.988;6.020;2022-09-12T09:28:48;28.30;;;20.40;;
43098;SDS011;28715;51.988;6.020;2022-09-12T09:31:18;24.83;;;19.63;;
43098;SDS011;28715;51.988;6.020;2022-09-12T09:33:45;21.92;;;18.45;;
43098;SDS011;28715;51.988;6.020;2022-09-12T09:36:21;23.60;;;19.40;;
43098;SDS011;28715;51.988;6.020;2022-09-12T09:39:04;24.47;;;18.47;;
43098;SDS011;28715;51.988;6.020;2022-09-12T09:44:33;26.07;;;20.60;;
43098;SDS011;28715;51.988;6.020;2022-09-12T09:46:59;23.57;;;18.43;;
43098;SDS011;28715;51.988;6.020;2022-09-12T09:49:29;22.33;;;18.13;;
43098;SDS011;28715;51.988;6.020;2022-09-12T09:51:57;23.47;;;17.73;;
43098;SDS011;28715;51.988;6.020;2022-09-12T09:54:30;23.20;;;17.23;;
43098;SDS011;28715;51.988;6.020;2022-09-12T09:59:57;18.90;;;15.23;;
43098;SDS011;28715;51.988;6.020;2022-09-12T10:02:23;19.53;;;14.70;;
43098;SDS011;28715;51.988;6.020;2022-09-12T10:04:54;19.47;;;15.23;;
43098;SDS011;28715;51.988;6.020;2022-09-12T10:07:21;19.37;;;13.90;;
43098;SDS011;28715;51.988;6.020;2022-09-12T10:12:40;15.50;;;12.37;;
43098;SDS011;28715;51.988;6.020;2022-09-12T10:15:19;17.07;;;14.07;;
43098;SDS011;28715;51.988;6.020;2022-09-12T10:17:47;16.40;;;12.23;;
43098;SDS011;28715;51.988;6.020;2022-09-12T10:23:16;15.00;;;12.30;;
43098;SDS011;28715;51.988;6.020;2022-09-12T10:25:51;16.77;;;11.00;;
43098;SDS011;28715;51.988;6.020;2022-09-12T10:28:21;14.00;;;10.80;;
43098;SDS011;28715;51.988;6.020;2022-09-12T10:31:01;15.50;;;12.43;;
43098;SDS011;28715;51.988;6.020;2022-09-12T10:33:28;15.23;;;11.63;;
43098;SDS011;28715;51.988;6.020;2022-09-12T10:35:55;14.07;;;11.33;;
43098;SDS011;28715;51.988;6.020;2022-09-12T10:38:26;15.63;;;11.10;;
43098;SDS011;28715;51.988;6.020;2022-09-12T10:40:56;14.57;;;12.23;;
43098;SDS011;28715;51.988;6.020;2022-09-12T10:43:34;17.20;;;11.50;;
43098;SDS011;28715;51.988;6.020;2022-09-12T10:48:39;12.93;;;10.60;;
43098;SDS011;28715;51.988;6.020;2022-09-12T10:51:10;16.00;;;11.80;;
43098;SDS011;28715;51.988;6.020;2022-09-12T10:53:52;12.63;;;9.67;;
43098;SDS011;28715;51.988;6.020;2022-09-12T10:56:22;17.67;;;12.57;;
43098;SDS011;28715;51.988;6.020;2022-09-12T10:58:58;15.37;;;11.33;;
43098;SDS011;28715;51.988;6.020;2022-09-12T11:01:45;10.23;;;8.20;;
43098;SDS011;28715;51.988;6.020;2022-09-12T11:04:38;8.00;;;6.53;;
43098;SDS011;28715;51.988;6.020;2022-09-12T11:10:11;9.70;;;6.57;;
43098;SDS011;28715;51.988;6.020;2022-09-12T11:12:55;6.30;;;4.80;;
43098;SDS011;28715;51.988;6.020;2022-09-12T11:21:19;10.70;;;7.70;;
43098;SDS011;28715;51.988;6.020;2022-09-12T11:24:05;8.87;;;5.93;;
43098;SDS011;28715;51.988;6.020;2022-09-12T11:27:16;9.97;;;6.30;;
43098;SDS011;28715;51.988;6.020;2022-09-12T11:29:58;9.07;;;6.63;;
43098;SDS011;28715;51.988;6.020;2022-09-12T11:35:30;8.43;;;6.40;;
43098;SDS011;28715;51.988;6.020;2022-09-12T11:41:15;6.57;;;4.47;;
43098;SDS011;28715;51.988;6.020;2022-09-12T11:43:59;8.37;;;5.23;;
43098;SDS011;28715;51.988;6.020;2022-09-12T11:46:44;5.20;;;3.60;;
43098;SDS011;28715;51.988;6.020;2022-09-12T11:51:41;7.50;;;4.90;;
43098;SDS011;28715;51.988;6.020;2022-09-12T11:54:41;7.93;;;4.40;;
43098;SDS011;28715;51.988;6.020;2022-09-12T11:59:56;8.70;;;6.40;;
43098;SDS011;28715;51.988;6.020;2022-09-12T12:02:26;7.67;;;5.80;;
43098;SDS011;28715;51.988;6.020;2022-09-12T12:07:57;8.43;;;6.40;;
43098;SDS011;28715;51.988;6.020;2022-09-12T12:11:25;7.38;;;6.15;;
43098;SDS011;28715;51.988;6.020;2022-09-12T12:13:28;1058.53;;;294.43;;
43098;SDS011;28715;51.988;6.020;2022-09-12T12:18:30;8.63;;;6.20;;
43098;SDS011;28715;51.988;6.020;2022-09-12T12:21:15;9.68;;;7.30;;
43098;SDS011;28715;51.988;6.020;2022-09-12T12:24:00;501.20;;;251.13;;
43098;SDS011;28715;51.988;6.020;2022-09-12T12:34:41;9.35;;;5.60;;
43098;SDS011;28715;51.988;6.020;2022-09-12T12:42:10;1999.90;;;999.90;;
43098;SDS011;28715;51.988;6.020;2022-09-12T12:45:45;1999.90;;;999.90;;
43098;SDS011;28715;51.988;6.020;2022-09-12T12:47:54;1999.90;;;999.90;;
43098;SDS011;28715;51.988;6.020;2022-09-12T12:50:24;1999.90;;;999.90;;
43098;SDS011;28715;51.988;6.020;2022-09-12T12:52:56;7.22;;;5.25;;
43098;SDS011;28715;51.988;6.020;2022-09-12T12:58:06;7.33;;;5.30;;
43098;SDS011;28715;51.988;6.020;2022-09-12T13:03:30;8.17;;;5.17;;
43098;SDS011;28715;51.988;6.020;2022-09-12T13:06:02;6.90;;;5.30;;
43098;SDS011;28715;51.988;6.020;2022-09-12T13:08:32;7.80;;;5.50;;
43098;SDS011;28715;51.988;6.020;2022-09-12T13:11:07;7.45;;;4.78;;
43098;SDS011;28715;51.988;6.020;2022-09-12T13:13:42;5.90;;;4.50;;
43098;SDS011;28715;51.988;6.020;2022-09-12T13:19:21;12.43;;;4.80;;
43098;SDS011;28715;51.988;6.020;2022-09-12T13:21:58;6.47;;;4.40;;
43098;SDS011;28715;51.988;6.020;2022-09-12T13:24:25;5.53;;;4.40;;
43098;SDS011;28715;51.988;6.020;2022-09-12T13:26:51;6.40;;;4.47;;
43098;SDS011;28715;51.988;6.020;2022-09-12T13:29:21;6.10;;;4.10;;
43098;SDS011;28715;51.988;6.020;2022-09-12T13:31:50;6.17;;;3.70;;
43098;SDS011;28715;51.988;6.020;2022-09-12T13:34:23;6.30;;;3.70;;
43098;SDS011;28715;51.988;6.020;2022-09-12T13:40:09;7.97;;;4.10;;
43098;SDS011;28715;51.988;6.020;2022-09-12T13:45:32;7.20;;;3.80;;
43098;SDS011;28715;51.988;6.020;2022-09-12T13:48:01;5.23;;;3.30;;
43098;SDS011;28715;51.988;6.020;2022-09-12T13:50:50;5.77;;;3.90;;
43098;SDS011;28715;51.988;6.020;2022-09-12T13:53:23;6.00;;;4.17;;
43098;SDS011;28715;51.988;6.020;2022-09-12T13:55:52;5.13;;;3.40;;
43098;SDS011;28715;51.988;6.020;2022-09-12T14:06:34;1999.90;;;999.90;;
43098;SDS011;28715;51.988;6.020;2022-09-12T14:09:11;1999.90;;;999.90;;
43098;SDS011;28715;51.988;6.020;2022-09-12T14:11:38;1999.90;;;999.90;;
43098;SDS011;28715;51.988;6.020;2022-09-12T14:14:16;1999.90;;;999.90;;
43098;SDS011;28715;51.988;6.020;2022-09-12T14:16:45;1999.90;;;999.90;;
43098;SDS011;28715;51.988;6.020;2022-09-12T14:19:11;1999.90;;;999.90;;
43098;SDS011;28715;51.988;6.020;2022-09-12T14:21:40;4.57;;;3.40;;
43098;SDS011;28715;51.988;6.020;2022-09-12T14:24:05;3.97;;;3.23;;
43098;SDS011;28715;51.988;6.020;2022-09-12T14:26:34;7.47;;;5.70;;
43098;SDS011;28715;51.988;6.020;2022-09-12T14:29:05;9.40;;;5.33;;
43098;SDS011;28715;51.988;6.020;2022-09-12T14:31:36;6.00;;;3.83;;
43098;SDS011;28715;51.988;6.020;2022-09-12T14:34:24;5.43;;;3.20;;
43098;SDS011;28715;51.988;6.020;2022-09-12T14:36:49;5.40;;;3.57;;
43098;SDS011;28715;51.988;6.020;2022-09-12T14:39:32;4.47;;;3.17;;
43098;SDS011;28715;51.988;6.020;2022-09-12T14:42:17;4.53;;;3.83;;
43098;SDS011;28715;51.988;6.020;2022-09-12T14:44:54;6.03;;;3.57;;
43098;SDS011;28715;51.988;6.020;2022-09-12T14:47:23;4.43;;;3.40;;
43098;SDS011;28715;51.988;6.020;2022-09-12T14:49:50;6.38;;;3.28;;
43098;SDS011;28715;51.988;6.020;2022-09-12T14:52:23;4.73;;;3.33;;
43098;SDS011;28715;51.988;6.020;2022-09-12T14:54:57;4.00;;;3.10;;
43098;SDS011;28715;51.988;6.020;2022-09-12T14:57:32;5.13;;;3.43;;
43098;SDS011;28715;51.988;6.020;2022-09-12T15:00:04;4.37;;;3.30;;
43098;SDS011;28715;51.988;6.020;2022-09-12T15:02:36;4.53;;;3.53;;
43098;SDS011;28715;51.988;6.020;2022-09-12T15:10:19;5.27;;;3.30;;
43098;SDS011;28715;51.988;6.020;2022-09-12T15:15:30;4.63;;;3.40;;
43098;SDS011;28715;51.988;6.020;2022-09-12T15:17:56;4.80;;;2.80;;
43098;SDS011;28715;51.988;6.020;2022-09-12T15:20:22;4.73;;;2.97;;
43098;SDS011;28715;51.988;6.020;2022-09-12T15:22:48;5.53;;;3.60;;
43098;SDS011;28715;51.988;6.020;2022-09-12T15:25:14;5.33;;;3.80;;
43098;SDS011;28715;51.988;6.020;2022-09-12T15:27:40;5.97;;;4.00;;
43098;SDS011;28715;51.988;6.020;2022-09-12T15:30:09;6.47;;;3.80;;
43098;SDS011;28715;51.988;6.020;2022-09-12T15:32:36;5.43;;;3.80;;
43098;SDS011;28715;51.988;6.020;2022-09-12T15:35:04;6.80;;;3.80;;
43098;SDS011;28715;51.988;6.020;2022-09-12T15:37:40;6.57;;;3.60;;
43098;SDS011;28715;51.988;6.020;2022-09-12T15:40:06;5.10;;;3.80;;
43098;SDS011;28715;51.988;6.020;2022-09-12T15:42:33;5.77;;;3.47;;
43098;SDS011;28715;51.988;6.020;2022-09-12T15:44:58;6.73;;;3.70;;
43098;SDS011;28715;51.988;6.020;2022-09-12T15:47:24;5.60;;;3.70;;
43098;SDS011;28715;51.988;6.020;2022-09-12T15:49:50;5.13;;;3.27;;
43098;SDS011;28715;51.988;6.020;2022-09-12T15:52:15;4.40;;;3.40;;
43098;SDS011;28715;51.988;6.020;2022-09-12T15:54:41;6.37;;;3.87;;
43098;SDS011;28715;51.988;6.020;2022-09-12T15:57:07;6.83;;;4.00;;
43098;SDS011;28715;51.988;6.020;2022-09-12T15:59:33;5.30;;;3.80;;
43098;SDS011;28715;51.988;6.020;2022-09-12T16:01:59;7.63;;;4.10;;
43098;SDS011;28715;51.988;6.020;2022-09-12T16:04:27;5.57;;;4.07;;
43098;SDS011;28715;51.988;6.020;2022-09-12T16:06:54;6.43;;;4.50;;
43098;SDS011;28715;51.988;6.020;2022-09-12T16:09:21;5.17;;;3.80;;
43098;SDS011;28715;51.988;6.020;2022-09-12T16:11:48;6.53;;;4.50;;
43098;SDS011;28715;51.988;6.020;2022-09-12T16:14:14;6.23;;;3.83;;
43098;SDS011;28715;51.988;6.020;2022-09-12T16:16:41;6.93;;;4.70;;
43098;SDS011;28715;51.988;6.020;2022-09-12T16:19:08;5.90;;;4.80;;
43098;SDS011;28715;51.988;6.020;2022-09-12T16:21:35;8.10;;;4.40;;
43098;SDS011;28715;51.988;6.020;2022-09-12T16:24:01;6.50;;;4.13;;
43098;SDS011;28715;51.988;6.020;2022-09-12T16:26:26;7.17;;;4.53;;
43098;SDS011;28715;51.988;6.020;2022-09-12T16:28:55;5.30;;;3.90;;
43098;SDS011;28715;51.988;6.020;2022-09-12T16:31:22;5.10;;;4.30;;
43098;SDS011;28715;51.988;6.020;2022-09-12T16:33:48;6.33;;;4.60;;
43098;SDS011;28715;51.988;6.020;2022-09-12T16:36:15;8.07;;;5.00;;
43098;SDS011;28715;51.988;6.020;2022-09-12T16:38:53;6.47;;;5.10;;
43098;SDS011;28715;51.988;6.020;2022-09-12T16:41:20;7.07;;;4.60;;
43098;SDS011;28715;51.988;6.020;2022-09-12T16:43:49;6.60;;;4.60;;
43098;SDS011;28715;51.988;6.020;2022-09-12T16:46:19;7.73;;;5.00;;
43098;SDS011;28715;51.988;6.020;2022-09-12T16:48:51;7.17;;;5.30;;
43098;SDS011;28715;51.988;6.020;2022-09-12T16:51:18;8.53;;;4.87;;
43098;SDS011;28715;51.988;6.020;2022-09-12T16:53:46;7.22;;;4.88;;
43098;SDS011;28715;51.988;6.020;2022-09-12T16:56:12;6.73;;;4.93;;
43098;SDS011;28715;51.988;6.020;2022-09-12T16:58:39;5.83;;;4.73;;
43098;SDS011;28715;51.988;6.020;2022-09-12T17:01:06;11.50;;;4.73;;
43098;SDS011;28715;51.988;6.020;2022-09-12T17:03:33;7.77;;;4.47;;
43098;SDS011;28715;51.988;6.020;2022-09-12T17:06:09;9.90;;;5.10;;
43098;SDS011;28715;51.988;6.020;2022-09-12T17:08:41;10.57;;;7.13;;
43098;SDS011;28715;51.988;6.020;2022-09-12T17:11:09;7.90;;;5.70;;
43098;SDS011;28715;51.988;6.020;2022-09-12T17:13:37;8.48;;;5.88;;
43098;SDS011;28715;51.988;6.020;2022-09-12T17:16:04;8.00;;;5.43;;